Carolina Beach, North Carolina
Current Conditions -  °F | °C
As of 9:35 AM on Sunday 23 Nov 2014 (Local Time) from KSUT Reporting Station
Moderate Rain Moderate Rain  
Wind Chill: 58°   Ceiling: 3300
Heat Index: 58°   Visibility: 4mi
Dew Point: 57°   Wind: 3mph
Humidity: 95%   Direction: 100°E
Pressure: 30.24"   Gusts: NA
Location:  34.04°N, 77.89°W
Report Text: KSUT 231435Z AUTO 10003KT 4SM RA BKN033 BKN040 15/14 A3024 RMK AO2 P0004 T01450137
Loading
Personal Weather Stations






























Interactive Weather Map New forecast layout! Learn more

10-Day Weather Forecast

Advertisements
Track Severe Weather on mobile